Time;durP1;ratioP1;P1;durP2;ratioP2;P2;SDS_P1;SDS_P2;PMS_P1;PMS_P2;Temp;Humidity;BMP_temperature;BMP_pressure;BME280_temperature;BME280_humidity;BME280_pressure;Samples;Min_cycle;Max_cycle;Signal;HPM_P1;HPM_P2
2021/12/06 00:01:45;;;;;;;67.60;62.58;;;;;;;5.48;100.00;101684.50;1817673;75;936983;-75
2021/12/06 00:07:30;;;;;;;66.43;61.27;;;;;;;5.43;100.00;101676.12;1996957;69;86360;-71
2021/12/06 00:13:13;;;;;;;66.80;61.53;;;;;;;5.41;100.00;101672.73;1867608;75;85379;-75
2021/12/06 00:18:58;;;;;;;68.47;62.93;;;;;;;5.27;100.00;101677.56;1919018;72;86270;-71
2021/12/06 00:24:44;;;;;;;64.93;59.83;;;;;;;5.44;100.00;101666.75;1984005;71;39494;-75
2021/12/06 00:30:28;;;;;;;63.83;58.63;;;;;;;5.40;100.00;101663.63;1853407;76;87017;-70
2021/12/06 00:36:26;;;;;;;64.10;59.27;;;;;;;5.26;100.00;101662.66;1892901;75;86399;-72
2021/12/06 00:42:01;;;;;;;65.97;60.67;;;;;;;5.27;100.00;101673.43;1928042;73;86666;-74
2021/12/06 00:47:44;;;;;;;66.67;61.67;;;;;;;5.19;100.00;101670.14;1941192;71;39731;-71
2021/12/06 00:53:28;;;;;;;64.73;59.63;;;;;;;5.19;100.00;101662.72;1824647;76;86451;-72
2021/12/06 00:59:13;;;;;;;65.70;60.73;;;;;;;5.16;100.00;101662.34;1871366;75;85207;-74
2021/12/06 01:04:57;;;;;;;67.17;61.77;;;;;;;5.00;100.00;101661.90;1912157;74;86051;-71
2021/12/06 01:10:42;;;;;;;67.83;62.50;;;;;;;4.85;100.00;101666.07;1936271;71;40554;-70
2021/12/06 01:16:26;;;;;;;66.10;60.80;;;;;;;4.74;100.00;101681.44;1882534;74;86248;-71
2021/12/06 01:22:23;;;;;;;68.90;63.67;;;;;;;4.68;100.00;101660.84;1898259;74;86002;-72
2021/12/06 01:28:46;;;;;;;66.67;61.37;;;;;;;4.65;100.00;101654.43;1944502;73;86228;-71
2021/12/06 01:39:09;;;;;;;68.00;62.57;;;;;;;4.82;100.00;101648.11;1880751;74;86387;-73
2021/12/06 01:39:55;;;;;;;68.07;62.57;;;;;;;4.97;100.00;101637.56;1913251;73;86544;-72
2021/12/06 01:45:39;;;;;;;67.50;62.43;;;;;;;4.99;100.00;101632.67;1937245;71;39493;-72
2021/12/06 01:51:23;;;;;;;66.77;61.37;;;;;;;5.06;100.00;101651.86;1890280;74;85323;-72
2021/12/06 01:57:08;;;;;;;66.30;61.17;;;;;;;4.97;100.00;101676.63;1931213;73;86280;-75
2021/12/06 02:02:53;;;;;;;66.07;60.87;;;;;;;5.07;100.00;101660.97;1878064;74;86063;-71
2021/12/06 02:08:37;;;;;;;65.57;60.37;;;;;;;5.07;100.00;101641.69;1796664;79;86485;-75
2021/12/06 02:14:33;;;;;;;67.67;62.23;;;;;;;5.06;100.00;101636.72;1808017;78;85798;-73
2021/12/06 02:20:25;;;;;;;65.40;60.33;;;;;;;5.01;100.00;101631.89;1869872;75;86532;-75
2021/12/06 02:26:05;;;;;;;66.10;61.17;;;;;;;4.99;100.00;101636.81;1862568;73;86376;-74
2021/12/06 02:31:50;;;;;;;67.23;61.87;;;;;;;5.10;100.00;101648.11;1972279;71;39664;-74
2021/12/06 02:37:36;;;;;;;66.40;61.10;;;;;;;4.97;100.00;101648.56;1826373;76;86395;-74
2021/12/06 02:43:23;;;;;;;65.40;60.20;;;;;;;5.06;100.00;101635.34;1807911;78;86271;-74
2021/12/06 02:49:07;;;;;;;65.37;60.27;;;;;;;4.99;100.00;101615.31;1910177;74;86254;-71
2021/12/06 02:54:56;;;;;;;69.87;63.80;;;;;;;4.96;100.00;101617.97;1943491;73;86597;-72
2021/12/06 03:00:37;;;;;;;64.33;58.80;;;;;;;4.96;100.00;101612.47;1810715;77;86354;-75
2021/12/06 03:06:22;;;;;;;66.23;60.87;;;;;;;4.89;100.00;101617.75;1799917;78;86773;-72
2021/12/06 03:12:09;;;;;;;66.60;61.27;;;;;;;4.55;100.00;101605.41;1915565;72;86752;-71
2021/12/06 03:17:54;;;;;;;63.80;58.80;;;;;;;4.57;100.00;101613.77;1927012;73;86257;-71
2021/12/06 03:23:39;;;;;;;60.93;56.07;;;;;;;4.43;100.00;101604.48;1812132;78;86444;-73
2021/12/06 03:29:24;;;;;;;62.80;57.70;;;;;;;4.39;100.00;101611.51;1800437;78;85283;-72
2021/12/06 03:35:10;;;;;;;66.60;61.10;;;;;;;4.43;100.00;101630.61;1921966;72;86749;-75
2021/12/06 03:40:55;;;;;;;63.67;58.40;;;;;;;4.37;100.00;101624.09;1912112;74;86074;-70
2021/12/06 03:49:45;;;;;;;63.20;57.90;;;;;;;4.31;100.00;101623.64;1986251;69;39639;-74
2021/12/06 03:52:15;;;;;;;62.90;57.80;;;;;;;4.35;100.00;101650.16;1912178;73;934861;-74
2021/12/06 03:54:49;;;;;;;64.53;59.05;;;;;;;4.25;100.00;101649.28;1874973;74;938621;-74
2021/12/06 03:57:20;;;;;;;65.03;59.70;;;;;;;4.18;100.00;101648.50;1877563;74;936943;-74
2021/12/06 03:59:53;;;;;;;65.53;60.20;;;;;;;4.02;100.00;101638.88;1912955;73;938819;-71
2021/12/06 04:05:38;;;;;;;64.13;58.73;;;;;;;4.03;100.00;101607.58;1892486;74;86836;-71
2021/12/06 04:11:22;;;;;;;65.53;60.47;;;;;;;4.11;100.00;101588.05;1806268;78;85494;-72
2021/12/06 04:17:06;;;;;;;62.70;57.20;;;;;;;4.11;100.00;101589.95;1916455;72;86664;-70
2021/12/06 04:22:51;;;;;;;63.60;58.50;;;;;;;4.03;100.00;101601.23;1980434;71;39758;-74
2021/12/06 04:28:37;;;;;;;63.00;57.70;;;;;;;3.97;100.00;101603.52;1829026;76;86311;-72
2021/12/06 04:34:24;;;;;;;63.20;57.63;;;;;;;4.01;100.00;101597.36;1807356;78;86346;-75
2021/12/06 04:40:10;;;;;;;64.73;59.13;;;;;;;4.12;100.00;101593.86;1921043;73;87243;-75
2021/12/06 04:45:55;;;;;;;65.60;60.00;;;;;;;4.05;100.00;101602.72;1909297;74;86464;-72
2021/12/06 04:51:43;;;;;;;66.33;60.57;;;;;;;4.01;100.00;101606.98;1986121;71;39655;-75
2021/12/06 05:00:48;;;;;;;67.00;61.37;;;;;;;4.15;100.00;101593.13;1970154;71;39952;-69
2021/12/06 05:06:36;;;;;;;65.60;60.23;;;;;;;4.26;100.00;101599.25;1879298;74;86357;-72
2021/12/06 05:12:22;;;;;;;66.13;60.40;;;;;;;4.22;100.00;101593.36;1907372;74;85757;-71
2021/12/06 05:18:08;;;;;;;65.43;59.90;;;;;;;4.19;100.00;101581.45;1904257;72;86441;-73
2021/12/06 05:23:53;;;;;;;63.70;58.23;;;;;;;4.04;100.00;101561.16;1877722;72;85473;-74
2021/12/06 05:29:43;;;;;;;65.67;60.17;;;;;;;4.01;100.00;101556.13;1811528;78;86318;-71
2021/12/06 05:35:24;;;;;;;64.10;58.90;;;;;;;4.08;100.00;101553.30;1883044;75;85522;-70
2021/12/06 05:41:09;;;;;;;66.23;60.37;;;;;;;4.16;100.00;101567.28;1877055;75;85945;-72
2021/12/06 05:46:54;;;;;;;64.87;59.47;;;;;;;4.10;100.00;101563.55;1912743;74;85339;-73
2021/12/06 05:52:38;;;;;;;64.93;59.43;;;;;;;4.02;100.00;101572.90;1892549;74;86449;-70
2021/12/06 05:58:27;;;;;;;65.63;59.93;;;;;;;4.02;100.00;101560.53;1887943;74;86159;-74
2021/12/06 06:07:26;;;;;;;63.80;58.23;;;;;;;4.04;100.00;101536.42;1902434;74;86405;-70
2021/12/06 06:13:11;;;;;;;66.87;61.13;;;;;;;4.10;100.00;101528.66;1791369;79;86604;-73
2021/12/06 06:18:56;;;;;;;63.30;57.93;;;;;;;4.03;100.00;101516.02;1936392;73;86829;-71
2021/12/06 06:24:40;;;;;;;62.57;57.37;;;;;;;4.09;100.00;101504.13;1976387;71;39730;-72
2021/12/06 06:30:26;;;;;;;63.90;58.17;;;;;;;4.15;100.00;101511.45;1908677;74;86550;-73
2021/12/06 06:36:11;;;;;;;62.67;57.23;;;;;;;4.16;100.00;101508.17;1893138;73;86308;-72
2021/12/06 06:41:56;;;;;;;63.60;58.20;;;;;;;4.08;100.00;101504.66;1922871;72;86212;-70
2021/12/06 06:47:41;;;;;;;62.50;57.30;;;;;;;4.08;100.00;101494.20;1975278;71;39487;-75
2021/12/06 06:53:27;;;;;;;66.10;60.57;;;;;;;4.19;100.00;101460.47;1893054;74;86471;-80
2021/12/06 06:59:12;;;;;;;61.20;55.80;;;;;;;4.06;100.00;101442.74;1889635;75;86392;-71
2021/12/06 07:04:56;;;;;;;63.93;58.33;;;;;;;4.14;100.00;101434.19;1910775;74;86136;-70
2021/12/06 07:10:38;;;;;;;62.40;57.07;;;;;;;4.08;100.00;101427.69;1907714;74;86337;-70
2021/12/06 07:16:22;;;;;;;61.40;56.37;;;;;;;4.11;100.00;101426.37;1806706;78;86670;-72
2021/12/06 07:22:07;;;;;;;61.60;56.40;;;;;;;4.18;100.00;101417.55;1917594;72;85696;-77
2021/12/06 07:27:55;;;;;;;62.70;57.50;;;;;;;4.21;100.00;101413.48;1919091;72;86304;-76
2021/12/06 07:33:38;;;;;;;59.57;54.37;;;;;;;4.18;100.00;101400.20;1978668;71;40575;-70
2021/12/06 07:39:24;;;;;;;60.53;55.33;;;;;;;4.27;100.00;101414.80;1898280;74;86014;-79
2021/12/06 07:45:11;;;;;;;60.47;55.20;;;;;;;4.35;100.00;101416.39;1906538;72;86354;-72
2021/12/06 07:50:56;;;;;;;62.50;57.37;;;;;;;4.38;100.00;101412.63;1905857;72;86233;-72
2021/12/06 07:56:42;;;;;;;62.20;57.20;;;;;;;4.25;100.00;101392.17;1985274;71;39748;-72
2021/12/06 08:02:27;;;;;;;59.50;54.90;;;;;;;4.34;100.00;101403.17;1847181;76;86418;-76
2021/12/06 08:08:13;;;;;;;60.90;56.17;;;;;;;4.35;100.00;101400.73;1895662;74;86822;-76
2021/12/06 08:14:02;;;;;;;59.10;54.20;;;;;;;4.38;100.00;101394.76;1918224;73;86084;-75
2021/12/06 08:19:47;;;;;;;60.83;55.93;;;;;;;4.68;100.00;101382.92;1984712;71;39685;-75
2021/12/06 08:25:31;;;;;;;63.20;57.93;;;;;;;4.61;100.00;101374.78;1847447;76;85713;-70
2021/12/06 08:31:19;;;;;;;64.10;58.73;;;;;;;4.91;100.00;101383.86;1871051;75;86272;-74
2021/12/06 08:37:04;;;;;;;65.13;59.53;;;;;;;4.67;100.00;101361.45;1950335;72;86391;-74
2021/12/06 08:42:49;;;;;;;63.23;57.90;;;;;;;4.69;100.00;101340.59;1972278;71;40525;-71
2021/12/06 08:48:35;;;;;;;62.37;57.37;;;;;;;4.65;100.00;101324.25;1892731;74;86690;-71
2021/12/06 08:54:26;;;;;;;65.07;59.73;;;;;;;4.71;100.00;101288.89;1797356;78;86433;-73
2021/12/06 09:00:15;;;;;;;65.73;60.53;;;;;;;4.83;100.00;101281.52;1877574;74;85642;-72
2021/12/06 09:06:01;;;;;;;64.80;59.60;;;;;;;4.89;100.00;101266.80;1906424;73;86811;-72
2021/12/06 09:11:45;;;;;;;64.30;58.80;;;;;;;4.95;100.00;101267.23;1983135;71;39706;-70
2021/12/06 09:17:32;;;;;;;63.87;58.13;;;;;;;5.04;100.00;101266.65;1844559;76;85689;-70
2021/12/06 09:23:17;;;;;;;62.40;57.20;;;;;;;5.13;100.00;101251.14;1882709;74;86091;-74
2021/12/06 09:29:04;;;;;;;63.70;58.50;;;;;;;5.30;100.00;101246.05;1932359;72;86350;-71
2021/12/06 09:34:49;;;;;;;64.80;59.37;;;;;;;5.38;100.00;101236.05;1981102;71;39459;-73
2021/12/06 09:40:37;;;;;;;60.27;55.37;;;;;;;5.42;100.00;101241.36;1836234;76;86498;-73
2021/12/06 09:46:25;;;;;;;62.57;57.67;;;;;;;5.47;100.00;101224.95;1795677;78;86441;-69
2021/12/06 09:52:11;;;;;;;58.90;53.73;;;;;;;5.55;100.00;101213.24;1784158;78;86680;-73
2021/12/06 09:57:57;;;;;;;60.30;55.57;;;;;;;5.80;100.00;101199.98;1910961;72;86279;-71
2021/12/06 10:03:46;;;;;;;54.67;50.33;;;;;;;6.01;100.00;101197.11;1978484;71;39678;-70
2021/12/06 10:09:29;;;;;;;58.43;54.13;;;;;;;6.25;100.00;101196.73;1848441;76;86639;-67
2021/12/06 10:18:28;;;;;;;58.60;54.17;;;;;;;6.17;100.00;101169.56;1843958;76;86281;-70
2021/12/06 10:24:15;;;;;;;54.63;50.20;;;;;;;6.25;100.00;101160.88;1891320;73;86625;-69
2021/12/06 10:30:04;;;;;;;57.17;52.80;;;;;;;6.43;100.00;101150.16;1926150;73;85439;-72
2021/12/06 10:35:51;;;;;;;58.23;53.60;;;;;;;6.25;100.00;101144.33;1976413;71;39936;-73
2021/12/06 10:41:39;;;;;;;57.17;52.77;;;;;;;6.30;100.00;101134.77;1803114;78;86223;-69
2021/12/06 10:47:24;;;;;;;59.00;54.33;;;;;;;6.13;100.00;101128.94;1903065;74;86465;-71
2021/12/06 10:53:08;;;;;;;57.77;53.13;;;;;;;6.15;100.00;101090.39;1848181;76;86515;-70
2021/12/06 10:58:56;;;;;;;56.67;52.27;;;;;;;6.21;100.00;101036.13;1910713;72;86087;-74
2021/12/06 11:04:43;;;;;;;57.00;52.60;;;;;;;6.33;100.00;101007.93;1982089;71;39700;-70
2021/12/06 11:10:27;;;;;;;57.60;53.07;;;;;;;6.37;100.00;100983.69;1860812;76;85646;-70
2021/12/06 11:19:54;;;;;;;56.53;52.03;;;;;;;6.40;100.00;100940.44;1909863;74;86075;-71
2021/12/06 11:25:39;;;;;;;56.67;52.47;;;;;;;6.52;100.00;100925.67;1975813;71;39888;-69
2021/12/06 11:31:44;;;;;;;57.37;52.67;;;;;;;6.54;100.00;100913.30;1810483;78;86107;-72
2021/12/06 11:37:32;;;;;;;57.10;52.67;;;;;;;6.69;100.00;100901.05;1980239;69;86482;-71
2021/12/06 11:43:19;;;;;;;60.10;55.60;;;;;;;6.79;100.00;100910.00;1883206;74;86214;-71
2021/12/06 11:49:06;;;;;;;61.20;56.70;;;;;;;6.67;100.00;100897.73;1906923;74;86904;-77
2021/12/06 11:54:53;;;;;;;59.63;55.37;;;;;;;6.77;100.00;100881.27;1980883;71;39605;-74
2021/12/06 12:00:40;;;;;;;58.23;53.93;;;;;;;6.86;100.00;100851.27;1986550;71;39684;-72
2021/12/06 12:06:28;;;;;;;57.57;53.30;;;;;;;6.84;100.00;100828.62;1885828;74;86932;-73
2021/12/06 12:12:24;;;;;;;56.50;52.00;;;;;;;7.04;100.00;100813.62;1806945;78;86295;-72
2021/12/06 12:18:09;;;;;;;58.70;54.43;;;;;;;7.23;100.00;100805.78;1956085;72;86033;-69
2021/12/06 12:23:54;;;;;;;57.53;53.00;;;;;;;7.24;100.00;100798.59;1942579;73;86708;-68
2021/12/06 12:29:39;;;;;;;58.60;54.03;;;;;;;7.21;100.00;100777.57;1945145;71;39854;-70
2021/12/06 12:35:24;;;;;;;58.67;54.13;;;;;;;7.26;100.00;100772.09;1878841;75;86767;-73
2021/12/06 12:41:12;;;;;;;57.03;52.43;;;;;;;7.37;100.00;100759.99;1895414;74;86601;-71
2021/12/06 12:46:58;;;;;;;56.70;52.60;;;;;;;7.31;100.00;100757.77;1923382;73;86449;-73
2021/12/06 12:52:44;;;;;;;54.83;50.33;;;;;;;7.47;100.00;100742.11;1928830;71;39731;-71
2021/12/06 13:02:20;;;;;;;55.60;51.37;;;;;;;7.71;100.00;100709.33;1909125;72;86280;-71
2021/12/06 13:05:32;;;;;;;55.57;51.37;;;;;;;7.63;100.00;100709.30;1826959;76;936734;-70
2021/12/06 13:11:20;;;;;;;56.53;52.53;;;;;;;7.62;100.00;100664.78;1821515;76;85716;-71
2021/12/06 13:17:10;;;;;;;54.93;51.17;;;;;;;7.52;100.00;100645.96;1910362;74;86588;-69
2021/12/06 13:22:55;;;;;;;52.67;48.73;;;;;;;7.61;100.00;100628.59;1913275;74;86834;-71
2021/12/06 13:29:05;;;;;;;56.13;52.03;;;;;;;7.76;100.00;100631.39;1934981;71;39620;-71
2021/12/06 13:34:56;;;;;;;54.43;50.50;;;;;;;7.78;100.00;100620.07;1938778;71;39642;-70
2021/12/06 13:40:45;;;;;;;53.13;49.53;;;;;;;7.84;100.00;100603.75;1973372;71;39657;-71
2021/12/06 13:46:35;;;;;;;51.47;47.77;;;;;;;7.79;100.00;100594.89;1844671;76;86265;-72
2021/12/06 13:52:37;;;;;;;51.90;48.17;;;;;;;7.86;100.00;100582.75;1809966;78;85504;-72
2021/12/06 13:58:41;;;;;;;52.20;48.60;;;;;;;7.88;100.00;100558.41;1975500;71;39684;-71
2021/12/06 14:04:26;;;;;;;53.10;49.20;;;;;;;7.87;100.00;100569.21;1846694;76;86887;-72
2021/12/06 14:10:13;;;;;;;57.03;53.03;;;;;;;7.93;100.00;100580.55;1871928;75;85516;-72
2021/12/06 14:16:01;;;;;;;54.90;51.13;;;;;;;7.91;100.00;100594.66;1921119;72;86331;-71
2021/12/06 14:21:45;;;;;;;55.20;51.13;;;;;;;7.87;100.00;100592.17;1977251;71;39472;-70
2021/12/06 14:27:36;;;;;;;52.57;48.67;;;;;;;7.92;100.00;100582.47;1949748;72;86743;-70
2021/12/06 14:33:18;;;;;;;55.00;51.07;;;;;;;7.99;100.00;100585.82;1833126;76;86901;-72
2021/12/06 14:39:11;;;;;;;54.40;50.70;;;;;;;7.99;100.00;100582.22;1907676;72;86585;-70
2021/12/06 14:45:14;;;;;;;50.37;46.87;;;;;;;8.12;100.00;100574.22;1865584;75;86153;-71
2021/12/06 14:51:07;;;;;;;52.87;49.10;;;;;;;8.04;100.00;100574.77;1912406;73;86633;-71
2021/12/06 14:56:52;;;;;;;54.57;50.77;;;;;;;8.11;100.00;100586.38;1983284;71;39678;-70
2021/12/06 15:02:49;;;;;;;56.03;52.13;;;;;;;8.23;100.00;100598.55;1809319;78;86426;-70
2021/12/06 15:11:40;;;;;;;57.20;53.03;;;;;;;8.10;100.00;100606.02;1959240;71;40336;-71
2021/12/06 15:17:26;;;;;;;56.83;53.00;;;;;;;8.14;100.00;100614.87;1850448;76;86804;-70
2021/12/06 15:23:13;;;;;;;55.20;50.87;;;;;;;8.18;100.00;100604.91;1892143;75;86666;-70
2021/12/06 15:29:00;;;;;;;61.10;56.87;;;;;;;8.14;100.00;100608.50;1928551;73;86545;-68
2021/12/06 15:34:52;;;;;;;61.30;56.60;;;;;;;8.22;100.00;100613.48;1976517;71;39764;-71
2021/12/06 15:40:45;;;;;;;61.70;57.00;;;;;;;7.74;100.00;100629.44;1979081;71;39475;-69
2021/12/06 15:46:32;;;;;;;57.93;53.23;;;;;;;7.40;100.00;100612.20;1782274;79;85682;-70
2021/12/06 15:52:23;;;;;;;57.73;52.93;;;;;;;7.41;100.00;100609.15;1828304;76;86826;-71
2021/12/06 15:58:13;;;;;;;59.90;55.07;;;;;;;7.44;100.00;100622.45;1885163;73;86884;-70
2021/12/06 16:04:02;;;;;;;58.07;53.70;;;;;;;7.22;100.00;100636.44;1910710;72;86868;-71
2021/12/06 16:09:46;;;;;;;60.00;55.70;;;;;;;7.43;100.00;100655.31;1985175;71;39403;-70
2021/12/06 16:15:32;;;;;;;57.90;53.60;;;;;;;7.48;100.00;100654.51;1825503;76;85635;-71
2021/12/06 16:21:22;;;;;;;56.73;52.10;;;;;;;7.42;100.00;100664.70;1848557;75;86450;-71
2021/12/06 16:27:14;;;;;;;57.37;53.13;;;;;;;7.37;100.00;100669.36;1851810;76;86674;-71
2021/12/06 16:33:01;;;;;;;53.53;49.23;;;;;;;7.50;100.00;100666.94;1914637;74;85396;-71
2021/12/06 16:38:47;;;;;;;58.83;54.43;;;;;;;7.60;100.00;100682.75;1978954;71;75581;-69
2021/12/06 16:44:35;;;;;;;56.93;52.97;;;;;;;7.61;100.00;100683.03;1836088;76;85415;-71
2021/12/06 16:50:28;;;;;;;55.63;51.57;;;;;;;7.51;100.00;100694.03;1877725;74;86214;-70
2021/12/06 16:56:15;;;;;;;52.37;48.57;;;;;;;7.38;100.00;100707.78;1883559;73;86839;-71
2021/12/06 17:02:06;;;;;;;59.20;54.90;;;;;;;7.36;100.00;100713.31;1900657;72;86605;-69
2021/12/06 17:08:08;;;;;;;53.80;49.90;;;;;;;7.13;100.00;100702.11;1915260;73;86295;-69
2021/12/06 17:13:53;;;;;;;54.53;50.83;;;;;;;6.95;100.00;100717.16;1923889;73;86574;-70
2021/12/06 17:19:39;;;;;;;55.20;50.93;;;;;;;6.94;100.00;100729.30;1935121;71;39767;-68
2021/12/06 17:25:31;;;;;;;52.63;49.00;;;;;;;6.79;100.00;100726.42;1879904;75;86632;-70
2021/12/06 17:31:39;;;;;;;51.87;48.20;;;;;;;6.71;100.00;100732.44;1808867;78;86904;-71
2021/12/06 17:37:25;;;;;;;50.77;47.47;;;;;;;6.59;100.00;100734.54;1888581;74;86711;-70
2021/12/06 17:43:10;;;;;;;51.77;48.40;;;;;;;6.46;100.00;100750.94;1898063;73;86608;-72
2021/12/06 19:39:12;;;;;;;49.20;46.30;;;;;;;5.65;100.00;100806.45;1781411;79;26329;-70
2021/12/06 19:41:43;;;;;;;54.47;51.20;;;;;;;5.64;100.00;100806.72;1782467;78;26839;-69
2021/12/06 19:44:14;;;;;;;51.37;48.20;;;;;;;5.67;100.00;100807.04;1879378;75;26316;-69
2021/12/06 19:46:44;;;;;;;49.10;46.20;;;;;;;5.71;100.00;100793.05;1875078;75;26768;-72
2021/12/06 19:49:14;;;;;;;49.50;46.30;;;;;;;5.68;100.00;100797.70;1874874;76;26320;-70
2021/12/06 19:54:59;;;;;;;46.33;43.20;;;;;;;5.78;100.00;100788.17;1925943;73;33056;-71
2021/12/06 20:00:45;;;;;;;46.63;43.77;;;;;;;5.77;100.00;100791.20;1889938;74;39492;-72
2021/12/06 20:06:29;;;;;;;45.23;42.40;;;;;;;5.74;100.00;100799.95;1837900;75;86341;-71
2021/12/06 20:12:15;;;;;;;44.33;41.27;;;;;;;5.71;100.00;100815.09;1831682;76;86124;-70
2021/12/06 20:17:59;;;;;;;45.30;42.37;;;;;;;5.71;100.00;100822.52;1934885;73;86682;-71
2021/12/06 20:23:45;;;;;;;46.90;43.90;;;;;;;5.69;100.00;100826.89;1912695;74;39761;-70
2021/12/06 20:29:29;;;;;;;45.50;42.53;;;;;;;5.66;100.00;100839.81;1843388;76;86548;-71
2021/12/06 20:35:15;;;;;;;43.93;41.00;;;;;;;5.72;100.00;100848.99;1863294;76;86892;-73
2021/12/06 20:41:02;;;;;;;44.67;41.47;;;;;;;5.68;100.00;100850.05;1910483;72;86346;-72
2021/12/06 20:46:47;;;;;;;44.10;40.93;;;;;;;5.66;100.00;100860.48;1897328;74;39672;-71
2021/12/06 20:52:31;;;;;;;46.30;43.10;;;;;;;5.65;100.00;100854.66;1829719;76;86257;-72
2021/12/06 20:58:17;;;;;;;44.13;41.23;;;;;;;5.59;100.00;100879.11;1863572;75;86574;-72
2021/12/06 21:04:03;;;;;;;45.90;42.67;;;;;;;5.63;100.00;100891.30;1911495;74;86525;-72
2021/12/06 21:09:49;;;;;;;45.33;41.97;;;;;;;5.61;100.00;100899.51;1910818;74;39671;-71
2021/12/06 21:21:39;;;;;;;47.70;44.10;;;;;;;5.63;100.00;100900.94;1869222;75;86374;-71
2021/12/06 21:27:24;;;;;;;45.97;42.33;;;;;;;5.62;100.00;100899.80;1933649;73;86358;-71
2021/12/06 21:33:09;;;;;;;46.90;43.73;;;;;;;5.57;100.00;100899.18;1901483;72;86435;-72
2021/12/06 21:38:54;;;;;;;50.47;46.83;;;;;;;5.55;100.00;100890.34;1915286;74;86621;-70
2021/12/06 21:44:41;;;;;;;47.47;44.47;;;;;;;5.48;100.00;100886.37;1908257;73;39704;-70
2021/12/06 21:50:29;;;;;;;47.43;44.47;;;;;;;5.56;100.00;100887.05;1855063;76;86551;-69
2021/12/06 21:56:15;;;;;;;47.70;44.90;;;;;;;5.56;100.00;100904.96;1871492;74;85979;-71
2021/12/06 22:01:59;;;;;;;49.67;46.47;;;;;;;5.48;100.00;100907.56;1911532;73;86434;-69
2021/12/06 22:07:44;;;;;;;47.13;44.10;;;;;;;5.53;100.00;100935.20;1881859;73;39721;-69
2021/12/06 22:13:27;;;;;;;46.37;43.53;;;;;;;5.61;100.00;100955.45;1840845;76;85898;-71
2021/12/06 22:19:11;;;;;;;48.00;45.00;;;;;;;5.59;100.00;100954.88;1820812;77;86545;-70
2021/12/06 22:24:56;;;;;;;47.47;44.57;;;;;;;5.55;100.00;100948.74;1936877;72;85978;-71
2021/12/06 22:30:40;;;;;;;47.13;44.40;;;;;;;5.42;100.00;100959.01;1899290;74;39731;-69
2021/12/06 22:36:24;;;;;;;47.60;44.70;;;;;;;5.46;100.00;100956.05;1854766;76;85554;-71
2021/12/06 22:42:09;;;;;;;46.90;43.80;;;;;;;5.43;100.00;100969.48;1858309;76;86501;-71
2021/12/06 22:47:53;;;;;;;48.33;45.33;;;;;;;5.52;100.00;100958.33;1912275;73;85473;-72
2021/12/06 22:53:38;;;;;;;47.03;44.13;;;;;;;5.53;100.00;100978.45;1821428;78;85958;-71
2021/12/06 22:59:24;;;;;;;49.43;46.20;;;;;;;5.40;100.00;100976.84;1791995;78;86273;-72
2021/12/06 23:05:08;;;;;;;46.60;43.90;;;;;;;5.38;100.00;100997.77;1918215;74;85562;-71
2021/12/06 23:10:51;;;;;;;46.23;43.47;;;;;;;5.41;100.00;101009.66;1863265;73;39763;-71
2021/12/06 23:16:36;;;;;;;49.63;46.53;;;;;;;5.30;100.00;101019.38;1823822;77;86676;-71
2021/12/06 23:22:20;;;;;;;46.30;43.33;;;;;;;5.19;100.00;101027.96;1873815;74;86367;-71
2021/12/06 23:28:06;;;;;;;46.73;43.53;;;;;;;5.12;100.00;101031.95;1911971;73;86687;-72
2021/12/06 23:33:52;;;;;;;49.30;46.10;;;;;;;5.18;100.00;101041.99;1895504;74;39704;-72
2021/12/06 23:39:57;;;;;;;48.83;46.07;;;;;;;5.05;100.00;101038.42;1810159;78;86875;-71
2021/12/06 23:51:43;;;;;;;46.50;43.33;;;;;;;5.02;100.00;101036.16;1866304;76;86635;-71
2021/12/06 23:57:28;;;;;;;47.27;44.13;;;;;;;4.97;100.00;101029.17;1792630;77;86174;-72
